TimeEDT,TemperatureF,Dew PointF,Humidity,Sea Level PressureIn,VisibilityMPH,Wind Direction,Wind SpeedMPH,Gust SpeedMPH,PrecipitationIn,Events,Conditions,WindDirDegrees,DateUTC
12:55 AM,51.6,48.9,90,30.26,10.0,West,5.8,-,N/A,,Clear,260,2012-09-12 04:55:00
1:55 AM,52.3,49.1,89,30.27,10.0,West,4.6,-,N/A,,Clear,270,2012-09-12 05:55:00
2:55 AM,50.0,48.0,93,30.27,10.0,Calm,Calm,-,N/A,,Clear,0,2012-09-12 06:55:00
3:55 AM,49.6,48.2,95,30.28,10.0,WNW,5.8,-,N/A,,Clear,290,2012-09-12 07:55:00
4:55 AM,48.0,46.0,93,30.29,10.0,Calm,Calm,-,N/A,,Clear,0,2012-09-12 08:55:00
5:55 AM,49.6,47.7,93,30.31,10.0,Calm,Calm,-,N/A,,Clear,0,2012-09-12 09:55:00
6:55 AM,49.5,48.4,96,30.32,10.0,Calm,Calm,-,N/A,,Clear,0,2012-09-12 10:55:00
7:55 AM,53.8,49.3,85,30.33,10.0,West,3.5,-,N/A,,Clear,280,2012-09-12 11:55:00
8:55 AM,59.9,50.9,72,30.34,10.0,Calm,Calm,-,N/A,,Clear,0,2012-09-12 12:55:00
9:55 AM,65.3,52.5,63,30.35,10.0,Calm,Calm,-,N/A,,Clear,0,2012-09-12 13:55:00
10:55 AM,69.3,52.3,55,30.35,10.0,Calm,Calm,-,N/A,,Clear,0,2012-09-12 14:55:00
11:55 AM,73.2,51.4,46,30.35,10.0,Calm,Calm,-,N/A,,Clear,0,2012-09-12 15:55:00
12:55 PM,73.9,54.0,50,30.34,10.0,SE,9.2,-,N/A,,Clear,140,2012-09-12 16:55:00
1:55 PM,75.2,51.6,44,30.33,10.0,SSE,10.4,-,N/A,,Clear,150,2012-09-12 17:55:00
2:55 PM,75.2,49.1,40,30.32,10.0,SE,10.4,-,N/A,,Clear,130,2012-09-12 18:55:00
3:55 PM,73.2,51.8,47,30.31,10.0,SSE,10.4,-,N/A,,Clear,150,2012-09-12 19:55:00
4:55 PM,71.2,51.6,50,30.31,10.0,SE,9.2,-,N/A,,Clear,140,2012-09-12 20:55:00
5:55 PM,69.1,52.2,55,30.31,10.0,SSE,8.1,-,N/A,,Clear,150,2012-09-12 21:55:00
6:55 PM,63.3,53.2,70,30.31,10.0,SE,8.1,-,N/A,,Clear,140,2012-09-12 22:55:00
7:55 PM,60.3,53.8,79,30.32,10.0,SSE,6.9,-,N/A,,Clear,150,2012-09-12 23:55:00
8:55 PM,59.4,53.2,80,30.33,10.0,SSE,4.6,-,N/A,,Clear,150,2012-09-13 00:55:00
9:55 PM,59.7,53.4,80,30.33,10.0,Calm,Calm,-,N/A,,Clear,0,2012-09-13 01:55:00
10:55 PM,59.2,54.0,83,30.33,10.0,SW,3.5,-,N/A,,Clear,220,2012-09-13 02:55:00
11:55 PM,56.5,54.7,94,30.32,10.0,Calm,Calm,-,N/A,,Clear,0,2012-09-13 03:55:00